Winston-Salem, NC

3:17 PM EST on February 19, 2017 (GMT -0500)
Smith Reynolds

Weather History for KINT - March, 2014

Change the Weather History Date:

Friday, March 7, 2014

  Actual Average Record
Temperature  
Mean Temperature 34 °F -  
Max Temperature 39 °F 55 °F 78 °F (2009)
Min Temperature 28 °F 36 °F 17 °F (1966)
Degree Days  
Heating Degree Days 32    
Moisture  
Dew Point 29 °F    
Average Humidity 90    
Maximum Humidity 96    
Minimum Humidity 79    
Precipitation  
Precipitation 1.06 in - - ()
Sea Level Pressure  
Sea Level Pressure 30.02 in    
Wind  
Wind Speed 14 mph (NNE)    
Max Wind Speed 20 mph    
Max Gust Speed 32 mph    
Visibility 5 miles    
Events Rain , Snow    
Averages and records for this station are not official NWS values.
T = Trace of Precipitation, MM = Missing Value Source: NWS Daily Summary

Daily Weather History Graph

Daily Weather History Graph

Search for Another Location

Airport or City:

Trip Planner

Search our weather history database for the weather conditions in past years. The results will help you decide how hot, cold, wet, or windy it might be!

Date:

Astronomy

Mar. 07, 2014 Rise Set
Actual Time 6:42 AM EST 6:21 PM EST
Civil Twilight 6:17 AM EST 6:46 PM EST
Nautical Twilight 5:47 AM EST 7:16 PM EST
Astronomical Twilight 5:17 AM EST 7:46 PM EST
Moon 10:45 AM EST (3/7) 12:14 AM EST (3/7)
Length of Visible Light 12h 29m
Length of Day
11h 38m
Waxing Crescent, 42% of the Moon is Illuminated
Mar 7
Waxing Crescent
Mar 8
First Quarter
Mar 16
Full
Mar 23
Last Quarter
Mar 30
New

Hourly Weather History & Observations

Time (EST) Temp. Windchill Dew Point Humidity Pressure Visibility Wind Dir Wind Speed Gust Speed Precip Events Conditions
12:07 AM 30.9 °F 19.8 °F 28.0 °F 89% 30.11 in 6.0 mi NE 16.1 mph 27.6 mph 0.01 in Rain Light Freezing Rain
12:17 AM 30.9 °F 20.7 °F 28.0 °F 89% 30.11 in 6.0 mi NE 13.8 mph 25.3 mph 0.01 in Rain Light Freezing Rain
12:54 AM 30.0 °F 18.3 °F 27.0 °F 88% 30.12 in 5.0 mi NNE 17.3 mph 25.3 mph 0.05 in Rain Light Freezing Rain
1:47 AM 28.9 °F 17.7 °F 26.1 °F 89% 30.08 in 3.0 mi NNE 15.0 mph 25.3 mph 0.08 in   Overcast
1:54 AM 28.9 °F 17.3 °F 27.0 °F 92% 30.10 in 3.0 mi NNE 16.1 mph 24.2 mph 0.10 in   Overcast
2:02 AM 28.9 °F 16.1 °F 26.1 °F 89% 30.07 in 2.5 mi NNE 19.6 mph 32.2 mph 0.02 in   Overcast
2:23 AM 30.0 °F 17.5 °F 27.0 °F 88% 30.05 in 2.0 mi NE 19.6 mph 27.6 mph 0.11 in Rain Light Freezing Rain
2:31 AM 30.0 °F 18.7 °F 27.0 °F 88% 30.04 in 2.0 mi NNE 16.1 mph 32.2 mph 0.15 in Rain Light Freezing Rain
2:43 AM 30.0 °F 17.9 °F 27.0 °F 88% 30.04 in 3.0 mi NE 18.4 mph 26.5 mph 0.19 in Rain Light Freezing Rain
2:54 AM 30.0 °F 18.7 °F 27.0 °F 88% 30.05 in 4.0 mi NE 16.1 mph 27.6 mph 0.21 in Rain Light Freezing Rain
3:05 AM 30.0 °F 18.7 °F 27.0 °F 88% 30.03 in 4.0 mi NNE 16.1 mph 26.5 mph 0.01 in Rain Light Freezing Rain
3:19 AM 30.0 °F 19.1 °F 27.0 °F 88% 30.04 in 5.0 mi NNE 15.0 mph 24.2 mph 0.02 in Rain Light Freezing Rain
3:39 AM 30.0 °F 17.5 °F 27.0 °F 88% 30.03 in 4.0 mi NNE 19.6 mph 28.8 mph 0.03 in   Overcast
3:48 AM 30.2 °F 18.1 °F 26.6 °F 86% 30.03 in 4.0 mi NE 18.4 mph 31.1 mph 0.04 in Rain Light Freezing Rain
3:54 AM 30.0 °F 19.1 °F 27.0 °F 88% 30.05 in 4.0 mi NNE 15.0 mph 25.3 mph 0.04 in Rain Light Freezing Rain
4:04 AM 30.0 °F 19.5 °F 27.0 °F 88% 30.04 in 4.0 mi NNE 13.8 mph 26.5 mph 0.02 in Rain Light Freezing Rain
4:13 AM 30.0 °F 18.3 °F 27.0 °F 88% 30.02 in 4.0 mi NNE 17.3 mph 24.2 mph 0.03 in   Overcast
4:20 AM 30.0 °F 18.3 °F 27.0 °F 88% 30.02 in 5.0 mi NNE 17.3 mph 26.5 mph 0.04 in Rain Light Freezing Rain
4:37 AM 28.9 °F 19.8 °F 26.1 °F 89% 30.02 in 6.0 mi NNE 10.4 mph 25.3 mph 0.06 in Rain Light Freezing Rain
4:50 AM 28.4 °F 17.5 °F 26.6 °F 93% 30.03 in 7.0 mi NNE 13.8 mph - 0.06 in   Overcast
4:54 AM 28.9 °F 17.7 °F 26.1 °F 89% 30.05 in 7.0 mi NNE 15.0 mph 21.9 mph 0.06 in   Overcast
5:31 AM 28.9 °F 17.7 °F 27.0 °F 92% 30.01 in 4.0 mi NNE 15.0 mph 26.5 mph 0.02 in Rain Light Freezing Rain
5:50 AM 30.2 °F 18.5 °F 26.6 °F 86% 30.01 in 5.0 mi NNE 17.3 mph 24.2 mph 0.04 in Rain Light Freezing Rain
5:54 AM 30.0 °F 20.0 °F 27.0 °F 88% 30.03 in 6.0 mi NNE 12.7 mph 23.0 mph 0.04 in Rain Light Freezing Rain
6:05 AM 30.0 °F 18.7 °F 27.0 °F 88% 30.01 in 5.0 mi NNE 16.1 mph 23.0 mph 0.02 in Rain Light Freezing Rain
6:16 AM 30.0 °F 18.3 °F 27.0 °F 88% 30.01 in 6.0 mi NNE 17.3 mph 20.7 mph 0.04 in Rain Light Freezing Rain
6:54 AM 30.0 °F 19.1 °F 27.0 °F 88% 30.04 in 6.0 mi NNE 15.0 mph 23.0 mph 0.07 in Rain Light Freezing Rain
7:19 AM 30.0 °F 20.0 °F 28.0 °F 92% 30.02 in 4.0 mi NNE 12.7 mph 24.2 mph 0.04 in Snow Light Snow
7:54 AM 30.9 °F 20.7 °F 28.0 °F 89% 30.04 in 5.0 mi NNE 13.8 mph 25.3 mph 0.11 in   Overcast
8:26 AM 30.9 °F 20.2 °F 28.9 °F 92% 30.03 in 1.8 mi NNE 15.0 mph 20.7 mph 0.07 in Snow Light Snow
8:45 AM 30.9 °F 20.7 °F 28.9 °F 92% 30.03 in 0.8 mi NNE 13.8 mph 21.9 mph 0.11 in Snow Light Snow
8:54 AM 30.9 °F 21.2 °F 28.9 °F 92% 30.05 in 2.5 mi NNE 12.7 mph 21.9 mph 0.13 in Snow Light Snow
9:02 AM 32.0 °F 22.1 °F 28.9 °F 88% 30.03 in 4.0 mi NNE 13.8 mph 21.9 mph 0.02 in   Overcast
9:14 AM 32.0 °F 20.8 °F 28.9 °F 88% 30.03 in 5.0 mi NNE 17.3 mph 23.0 mph 0.03 in Rain Light Freezing Rain
9:40 AM 32.0 °F 22.1 °F 28.9 °F 88% 30.03 in 5.0 mi NNE 13.8 mph 24.2 mph 0.05 in Rain Light Freezing Rain
9:54 AM 32.0 °F 21.6 °F 28.9 °F 88% 30.05 in 5.0 mi North 15.0 mph 25.3 mph 0.07 in Rain Light Freezing Rain
10:07 AM 32.0 °F 20.8 °F 30.0 °F 92% 30.03 in 5.0 mi NNE 17.3 mph 23.0 mph 0.01 in Rain Light Freezing Rain
10:29 AM 33.1 °F 23.9 °F 30.0 °F 89% 30.03 in 5.0 mi NNE 12.7 mph 20.7 mph 0.02 in Rain Light Rain
10:54 AM 33.1 °F 24.4 °F 30.0 °F 89% 30.05 in 5.0 mi North 11.5 mph 19.6 mph 0.05 in Rain Rain
11:54 AM 34.0 °F 25.0 °F 30.9 °F 89% 30.04 in 6.0 mi NNE 12.7 mph - 0.06 in Rain Light Rain
12:54 PM 34.0 °F 23.8 °F 32.0 °F 92% 30.02 in 6.0 mi North 16.1 mph 21.9 mph 0.04 in Rain Light Rain
1:54 PM 35.1 °F 26.9 °F 33.1 °F 92% 29.99 in 8.0 mi NNE 11.5 mph - 0.03 in Rain Light Rain
2:54 PM 37.0 °F 29.8 °F 34.0 °F 89% 29.98 in 10.0 mi North 10.4 mph - 0.00 in   Overcast
3:02 PM 37.0 °F 29.3 °F 34.0 °F 89% 29.96 in 10.0 mi North 11.5 mph - 0.00 in   Overcast
3:16 PM 37.0 °F 28.9 °F 34.0 °F 89% 29.96 in 10.0 mi North 12.7 mph - 0.00 in Rain Light Rain
3:54 PM 37.9 °F 29.6 °F 34.0 °F 86% 29.98 in 10.0 mi North 13.8 mph 20.7 mph 0.00 in Rain Light Rain
4:26 PM 37.9 °F 30.9 °F 34.0 °F 86% 29.96 in 10.0 mi North 10.4 mph - 0.00 in Rain Light Rain
4:54 PM 39.0 °F 32.8 °F 34.0 °F 82% 29.98 in 10.0 mi North 9.2 mph - 0.00 in   Overcast
5:54 PM 39.9 °F 35.1 °F 34.0 °F 79% 29.96 in 10.0 mi North 6.9 mph - N/A   Partly Cloudy
6:54 PM 37.9 °F 35.5 °F 33.1 °F 83% 29.96 in 10.0 mi North 3.5 mph - N/A   Clear
7:54 PM 35.1 °F - 32.0 °F 89% 29.97 in 10.0 mi Calm Calm - N/A   Clear
8:54 PM 34.0 °F - 32.0 °F 92% 29.99 in 10.0 mi Calm Calm - N/A   Clear
9:07 PM 32.0 °F - 30.9 °F 96% 29.97 in 1.8 mi Calm Calm - N/A   Clear
9:15 PM 32.0 °F - 30.9 °F 96% 29.97 in 3.0 mi Calm Calm - N/A   Clear
9:54 PM 32.0 °F - 30.0 °F 92% 29.99 in 4.0 mi Calm Calm - N/A   Clear
10:54 PM 30.9 °F - 30.0 °F 96% 29.99 in 2.0 mi Calm Calm - N/A   Clear
11:01 PM 30.9 °F - 28.9 °F 92% 29.97 in 1.2 mi Calm Calm - N/A   Clear
11:05 PM 32.0 °F - 30.0 °F 92% 29.97 in 3.0 mi Calm Calm - N/A   Clear
11:14 PM 30.9 °F - 28.9 °F 92% 29.97 in 1.8 mi Calm Calm - N/A   Clear
11:24 PM 30.0 °F - 28.9 °F 96% 29.97 in 0.8 mi Calm Calm - N/A   Clear
11:43 PM 30.0 °F - 28.9 °F 96% 29.97 in 2.0 mi Calm Calm - N/A   Clear
11:51 PM 30.2 °F - 28.4 °F 93% 29.97 in 4.0 mi Calm Calm - N/A   Clear
11:54 PM 30.0 °F - 28.0 °F 92% 29.99 in 2.5 mi Calm Calm - N/A   Clear